createdAt,value
2023-04-05T00:02:30.179Z,5.40
2023-04-05T00:04:58.534Z,5.40
2023-04-05T00:07:26.546Z,5.30
2023-04-05T00:09:54.031Z,5.30
2023-04-05T00:12:21.124Z,5.30
2023-04-05T00:14:48.547Z,5.40
2023-04-05T00:17:15.572Z,5.40
2023-04-05T00:19:43.414Z,5.40
2023-04-05T00:22:11.118Z,5.40
2023-04-05T00:24:42.142Z,5.40
2023-04-05T00:27:09.278Z,5.40
2023-04-05T00:29:36.262Z,5.40
2023-04-05T00:32:04.953Z,5.40
2023-04-05T00:34:33.853Z,5.30
2023-04-05T00:37:01.481Z,5.20
2023-04-05T00:39:28.664Z,5.10
2023-04-05T00:41:56.423Z,5.10
2023-04-05T00:44:23.385Z,5.10
2023-04-05T00:46:51.197Z,5.00
2023-04-05T00:49:18.207Z,5.00
2023-04-05T00:51:45.213Z,5.00
2023-04-05T00:54:12.143Z,4.90
2023-04-05T00:56:40.194Z,4.90
2023-04-05T00:59:07.198Z,4.90
2023-04-05T01:01:37.965Z,4.90
2023-04-05T01:04:05.619Z,4.90
2023-04-05T01:06:41.842Z,4.80
2023-04-05T01:09:12.746Z,4.80
2023-04-05T01:11:40.844Z,4.70
2023-04-05T01:14:07.749Z,4.70
2023-04-05T01:16:34.858Z,4.60
2023-04-05T01:19:01.849Z,4.60
2023-04-05T01:21:51.895Z,4.60
2023-04-05T01:24:33.211Z,4.60
2023-04-05T01:27:19.088Z,4.50
2023-04-05T01:30:04.225Z,4.50
2023-04-05T01:32:37.365Z,4.50
2023-04-05T01:35:07.295Z,4.50
2023-04-05T01:37:35.167Z,4.50
2023-04-05T01:40:02.641Z,4.50
2023-04-05T01:42:29.656Z,4.50
2023-04-05T01:44:57.702Z,4.40
2023-04-05T01:47:24.862Z,4.40
2023-04-05T01:49:51.826Z,4.30
2023-04-05T01:52:18.799Z,4.30
2023-04-05T01:54:45.720Z,4.30
2023-04-05T01:57:12.733Z,4.30
2023-04-05T01:59:39.657Z,4.30
2023-04-05T02:02:06.520Z,4.30
2023-04-05T02:04:33.587Z,4.20
2023-04-05T02:07:01.115Z,4.20
2023-04-05T02:09:28.043Z,4.20
2023-04-05T02:11:55.050Z,4.20
2023-04-05T02:14:21.953Z,4.20
2023-04-05T02:16:49.075Z,4.20
2023-04-05T02:19:16.150Z,4.20
2023-04-05T02:21:43.204Z,4.10
2023-04-05T02:24:10.248Z,4.10
2023-04-05T02:26:37.144Z,4.10
2023-04-05T02:29:04.005Z,4.10
2023-04-05T02:31:31.066Z,4.10
2023-04-05T02:33:58.094Z,4.10
2023-04-05T02:36:28.394Z,4.10
2023-04-05T02:38:55.509Z,4.10
2023-04-05T02:41:23.934Z,4.10
2023-04-05T02:43:51.020Z,4.10
2023-04-05T02:46:17.897Z,4.20
2023-04-05T02:48:45.801Z,4.20
2023-04-05T02:51:12.680Z,4.20
2023-04-05T02:53:39.551Z,4.10
2023-04-05T02:56:07.938Z,4.10
2023-04-05T02:58:34.854Z,4.00
2023-04-05T03:01:06.223Z,4.00
2023-04-05T03:03:36.496Z,4.00
2023-04-05T03:06:10.965Z,4.00
2023-04-05T03:08:39.061Z,4.00
2023-04-05T03:11:06.936Z,4.10
2023-04-05T03:13:49.379Z,4.10
2023-04-05T03:16:17.403Z,4.10
2023-04-05T03:18:44.303Z,4.00
2023-04-05T03:21:11.696Z,4.00
2023-04-05T03:23:38.719Z,4.00
2023-04-05T03:26:06.564Z,4.00
2023-04-05T03:28:33.990Z,4.00
2023-04-05T03:31:01.299Z,4.00
2023-04-05T03:33:28.233Z,3.90
2023-04-05T03:35:55.198Z,3.90
2023-04-05T03:38:22.217Z,3.80
2023-04-05T03:40:49.164Z,3.80
2023-04-05T03:43:16.963Z,3.80
2023-04-05T03:45:43.855Z,3.70
2023-04-05T03:48:10.876Z,3.70
2023-04-05T03:50:37.718Z,3.70
2023-04-05T03:53:04.746Z,3.70
2023-04-05T03:55:31.905Z,3.70
2023-04-05T03:57:58.865Z,3.70
2023-04-05T04:00:25.813Z,3.70
2023-04-05T04:02:53.739Z,3.70
2023-04-05T04:05:24.515Z,3.70
2023-04-05T04:07:51.477Z,3.60
2023-04-05T04:10:18.349Z,3.60
2023-04-05T04:12:45.935Z,3.60
2023-04-05T04:15:12.930Z,3.50
2023-04-05T04:17:40.180Z,3.50
2023-04-05T04:20:11.392Z,3.50
2023-04-05T04:22:38.956Z,3.50
2023-04-05T04:25:10.663Z,3.40
2023-04-05T04:27:42.771Z,3.40
2023-04-05T04:30:10.795Z,3.40
2023-04-05T04:32:58.184Z,3.40
2023-04-05T04:35:29.372Z,3.40
2023-04-05T04:37:58.102Z,3.30
2023-04-05T04:40:26.132Z,3.30
2023-04-05T04:42:53.078Z,3.30
2023-04-05T04:45:20.050Z,3.40
2023-04-05T04:47:48.142Z,3.40
2023-04-05T04:50:16.266Z,3.40
2023-04-05T04:52:43.200Z,3.50
2023-04-05T04:55:10.437Z,3.60
2023-04-05T04:57:37.341Z,3.60
2023-04-05T05:00:12.147Z,3.60
2023-04-05T05:02:39.477Z,3.60
2023-04-05T05:05:08.077Z,3.60
2023-04-05T05:07:35.783Z,3.60
2023-04-05T05:10:03.080Z,3.60
2023-04-05T05:12:31.513Z,3.60
2023-04-05T05:14:58.453Z,3.60
2023-04-05T05:17:25.810Z,3.70
2023-04-05T05:19:54.143Z,3.80
2023-04-05T05:22:22.758Z,3.80
2023-04-05T05:24:49.667Z,3.70
2023-04-05T05:27:16.774Z,3.80
2023-04-05T05:29:43.730Z,3.90
2023-04-05T05:32:14.661Z,3.90
2023-04-05T05:34:41.900Z,3.90
2023-04-05T05:37:12.268Z,4.00
2023-04-05T05:39:39.334Z,4.10
2023-04-05T05:42:06.597Z,4.10
2023-04-05T05:44:33.521Z,4.20
2023-04-05T05:47:00.539Z,4.20
2023-04-05T05:49:27.456Z,4.30
2023-04-05T05:51:54.511Z,4.40
2023-04-05T05:54:21.407Z,4.40
2023-04-05T05:56:48.317Z,4.50
2023-04-05T05:59:15.921Z,4.50
2023-04-05T06:01:46.605Z,4.60
2023-04-05T06:04:14.083Z,4.70
2023-04-05T06:06:43.847Z,4.70
2023-04-05T06:09:11.062Z,4.70
2023-04-05T06:11:46.334Z,4.80
2023-04-05T06:14:20.690Z,4.90
2023-04-05T06:16:47.924Z,4.90
2023-04-05T06:19:14.809Z,5.00
2023-04-05T06:21:41.796Z,5.00
2023-04-05T06:24:08.715Z,5.10
2023-04-05T06:26:35.791Z,5.10
2023-04-05T06:29:02.805Z,5.10
2023-04-05T06:31:33.692Z,5.10
2023-04-05T06:34:00.900Z,5.20
2023-04-05T06:36:30.201Z,5.30
2023-04-05T06:38:57.200Z,5.30
2023-04-05T06:41:24.176Z,5.30
2023-04-05T06:43:51.255Z,5.30
2023-04-05T06:46:18.276Z,5.40
2023-04-05T06:48:47.815Z,5.40
2023-04-05T06:51:14.819Z,5.40
2023-04-05T06:53:42.210Z,5.40
2023-04-05T06:56:09.111Z,5.40
2023-04-05T06:58:36.977Z,5.50
2023-04-05T07:01:05.157Z,5.50
2023-04-05T07:03:32.909Z,5.50
2023-04-05T07:06:00.544Z,5.60
2023-04-05T07:08:28.229Z,5.60
2023-04-05T07:10:55.591Z,5.60
2023-04-05T07:13:23.235Z,5.60
2023-04-05T07:15:50.339Z,5.70
2023-04-05T07:18:17.314Z,5.70
2023-04-05T07:20:48.190Z,5.70
2023-04-05T07:23:15.169Z,5.80
2023-04-05T07:25:42.129Z,5.80
2023-04-05T07:28:09.088Z,5.90
2023-04-05T07:30:37.017Z,5.90
2023-04-05T07:33:04.144Z,5.90
2023-04-05T07:35:31.280Z,6.00
2023-04-05T07:37:58.284Z,6.00
2023-04-05T07:40:25.351Z,6.00
2023-04-05T07:42:52.470Z,6.10
2023-04-05T07:45:19.455Z,6.20
2023-04-05T07:47:46.829Z,6.30
2023-04-05T07:50:15.668Z,6.30
2023-04-05T07:52:42.968Z,6.40
2023-04-05T07:55:10.499Z,6.40
2023-04-05T07:57:37.988Z,6.50
2023-04-05T08:00:10.487Z,6.50
2023-04-05T08:02:37.496Z,6.50
2023-04-05T08:05:05.205Z,6.60
2023-04-05T08:07:32.222Z,6.60
2023-04-05T08:10:00.272Z,6.70
2023-04-05T08:12:27.446Z,6.80
2023-04-05T08:14:54.531Z,6.80
2023-04-05T08:17:24.367Z,6.90
2023-04-05T08:19:52.780Z,7.00
2023-04-05T08:22:20.230Z,7.00
2023-04-05T08:24:47.249Z,7.10
2023-04-05T08:27:14.181Z,7.10
2023-04-05T08:29:41.065Z,7.10
2023-04-05T08:32:09.246Z,7.20
2023-04-05T08:34:36.451Z,7.30
2023-04-05T08:37:03.591Z,7.30
2023-04-05T08:39:31.101Z,7.40
2023-04-05T08:42:04.026Z,7.60
2023-04-05T08:44:31.569Z,7.70
2023-04-05T08:46:58.973Z,7.80
2023-04-05T08:49:26.084Z,7.90
2023-04-05T08:51:53.543Z,7.90
2023-04-05T08:54:21.392Z,8.00
2023-04-05T08:56:51.682Z,8.10
2023-04-05T08:59:19.499Z,8.20
2023-04-05T09:01:49.257Z,8.30
2023-04-05T09:04:18.465Z,8.40
2023-04-05T09:06:46.360Z,8.50
2023-04-05T09:09:14.458Z,8.60
2023-04-05T09:11:43.079Z,8.70
2023-04-05T09:14:11.778Z,8.70
2023-04-05T09:16:39.650Z,8.70
2023-04-05T09:19:07.040Z,8.80
2023-04-05T09:21:52.599Z,8.90
2023-04-05T09:24:30.131Z,9.00
2023-04-05T09:27:26.431Z,9.10
2023-04-05T09:29:53.631Z,9.10
2023-04-05T09:32:25.986Z,9.20
2023-04-05T09:34:54.209Z,9.20
2023-04-05T09:37:21.963Z,9.30
2023-04-05T09:39:50.980Z,9.40
2023-04-05T09:42:19.488Z,9.50
2023-04-05T09:44:50.619Z,9.60
2023-04-05T09:47:18.581Z,9.60
2023-04-05T09:49:45.662Z,9.70
2023-04-05T09:52:22.093Z,9.80
2023-04-05T09:54:49.910Z,9.80
2023-04-05T09:57:18.360Z,9.90
2023-04-05T09:59:46.471Z,10.10
2023-04-05T10:02:13.813Z,10.20
2023-04-05T10:04:44.910Z,10.20
2023-04-05T10:07:16.155Z,10.20
2023-04-05T10:09:44.098Z,10.20
2023-04-05T10:12:12.949Z,10.20
2023-04-05T10:14:40.079Z,10.10
2023-04-05T10:17:16.324Z,10.20
2023-04-05T10:19:56.046Z,10.20
2023-04-05T10:22:43.175Z,10.20
2023-04-05T10:25:29.034Z,10.30
2023-04-05T10:28:00.898Z,10.30
2023-04-05T10:30:32.389Z,10.40
2023-04-05T10:33:03.194Z,10.60
2023-04-05T10:35:36.359Z,10.80
2023-04-05T10:38:03.222Z,10.90
2023-04-05T10:40:33.082Z,11.00
2023-04-05T10:43:01.036Z,11.20
2023-04-05T10:45:28.803Z,11.30
2023-04-05T10:48:03.187Z,11.40
2023-04-05T10:50:30.937Z,11.50
2023-04-05T10:52:58.150Z,11.50
2023-04-05T10:55:25.309Z,11.60
2023-04-05T10:57:54.527Z,11.60
2023-04-05T11:00:22.790Z,11.70
2023-04-05T11:02:54.024Z,11.90
2023-04-05T11:05:32.085Z,12.10
2023-04-05T11:08:06.210Z,12.00
2023-04-05T11:10:35.226Z,11.90
2023-04-05T11:13:02.618Z,11.90
2023-04-05T11:15:32.186Z,11.90
2023-04-05T11:18:08.719Z,11.80
2023-04-05T11:20:45.079Z,11.50
2023-04-05T11:23:12.671Z,11.30
2023-04-05T11:25:40.749Z,11.00
2023-04-05T11:28:11.969Z,10.80
2023-04-05T11:30:53.161Z,10.60
2023-04-05T11:33:38.501Z,10.40
2023-04-05T11:36:05.856Z,10.30
2023-04-05T11:38:32.949Z,10.20
2023-04-05T11:41:26.317Z,10.10
2023-04-05T11:43:53.798Z,10.10
2023-04-05T11:46:21.571Z,10.20
2023-04-05T11:48:51.724Z,10.50
2023-04-05T11:51:21.210Z,10.90
2023-04-05T11:53:48.196Z,11.30
2023-04-05T11:56:16.293Z,11.70
2023-04-05T11:58:43.307Z,12.00
2023-04-05T12:01:10.278Z,12.40
2023-04-05T12:03:37.860Z,12.70
2023-04-05T12:06:06.299Z,12.90
2023-04-05T12:08:53.197Z,13.10
2023-04-05T12:11:27.400Z,13.20
2023-04-05T12:13:55.300Z,13.20
2023-04-05T12:16:22.298Z,13.20
2023-04-05T12:18:57.525Z,13.10
2023-04-05T12:21:25.099Z,13.00
2023-04-05T12:23:52.834Z,13.00
2023-04-05T12:26:21.230Z,13.00
2023-04-05T12:28:54.029Z,13.00
2023-04-05T12:31:40.365Z,13.10
2023-04-05T12:34:07.799Z,13.20
2023-04-05T12:36:35.058Z,13.40
2023-04-05T12:39:06.078Z,13.60
2023-04-05T12:41:34.351Z,13.50
2023-04-05T12:44:16.814Z,13.50
2023-04-05T12:46:44.684Z,13.50
2023-04-05T12:49:20.949Z,13.50
2023-04-05T12:51:48.224Z,13.60
2023-04-05T12:54:22.564Z,13.60
2023-04-05T12:56:55.970Z,13.80
2023-04-05T12:59:23.508Z,13.90
2023-04-05T13:01:51.560Z,14.00
2023-04-05T13:04:18.599Z,14.10
2023-04-05T13:06:47.830Z,14.20
2023-04-05T13:09:15.187Z,14.30
2023-04-05T13:11:42.057Z,14.40
2023-04-05T13:14:09.133Z,14.50
2023-04-05T13:16:36.301Z,14.40
2023-04-05T13:19:05.827Z,14.30
2023-04-05T13:21:33.089Z,14.30
2023-04-05T13:24:00.152Z,14.40
2023-04-05T13:26:27.816Z,14.40
2023-04-05T13:28:54.746Z,14.50
2023-04-05T13:31:21.762Z,14.60
2023-04-05T13:33:48.715Z,14.70
2023-04-05T13:36:15.746Z,14.70
2023-04-05T13:38:42.813Z,14.50
2023-04-05T13:41:09.735Z,14.20
2023-04-05T13:43:36.668Z,13.90
2023-04-05T13:46:03.611Z,13.60
2023-04-05T13:48:30.815Z,13.30
2023-04-05T13:50:57.719Z,13.10
2023-04-05T13:53:26.666Z,13.10
2023-04-05T13:55:55.547Z,13.10
2023-04-05T13:58:22.432Z,13.20
2023-04-05T14:00:49.316Z,13.40
2023-04-05T14:03:16.372Z,13.40
2023-04-05T14:05:43.434Z,13.50
2023-04-05T14:08:10.611Z,13.50
2023-04-05T14:10:37.589Z,13.40
2023-04-05T14:13:04.524Z,13.30
2023-04-05T14:15:32.049Z,13.30
2023-04-05T14:17:59.013Z,13.40
2023-04-05T14:20:26.145Z,13.30
2023-04-05T14:22:53.107Z,13.30
2023-04-05T14:25:20.092Z,13.30
2023-04-05T14:27:47.190Z,13.20
2023-04-05T14:30:14.371Z,13.10
2023-04-05T14:32:41.801Z,13.00
2023-04-05T14:35:09.424Z,13.00
2023-04-05T14:37:36.661Z,12.90
2023-04-05T14:40:03.778Z,12.90
2023-04-05T14:42:45.218Z,12.80
2023-04-05T14:45:16.798Z,12.70
2023-04-05T14:47:43.803Z,12.60
2023-04-05T14:50:11.274Z,12.60
2023-04-05T14:52:40.071Z,12.50
2023-04-05T14:55:07.341Z,12.50
2023-04-05T14:57:34.431Z,12.50
2023-04-05T15:00:01.935Z,12.50
2023-04-05T15:02:28.974Z,12.40
2023-04-05T15:04:56.471Z,12.30
2023-04-05T15:07:23.463Z,12.20
2023-04-05T15:09:51.650Z,12.10
2023-04-05T15:12:18.685Z,12.10
2023-04-05T15:14:53.041Z,12.00
2023-04-05T15:17:20.626Z,11.90
2023-04-05T15:19:55.568Z,11.70
2023-04-05T15:22:23.768Z,11.60
2023-04-05T15:24:50.808Z,11.50
2023-04-05T15:27:17.714Z,11.40
2023-04-05T15:29:44.630Z,11.40
2023-04-05T15:32:11.545Z,11.40
2023-04-05T15:34:38.535Z,11.40
2023-04-05T15:37:05.620Z,11.40
2023-04-05T15:39:32.709Z,11.30
2023-04-05T15:41:59.892Z,11.20
2023-04-05T15:44:26.935Z,11.20
2023-04-05T15:46:53.991Z,11.10
2023-04-05T15:49:21.069Z,11.10
2023-04-05T15:51:47.963Z,11.10
2023-04-05T15:54:18.950Z,11.00
2023-04-05T15:56:46.207Z,10.90
2023-04-05T15:59:14.518Z,10.90
2023-04-05T16:01:41.692Z,10.80
2023-04-05T16:04:09.156Z,10.70
2023-04-05T16:06:36.420Z,10.60
2023-04-05T16:09:03.553Z,10.60
2023-04-05T16:11:31.267Z,10.40
2023-04-05T16:13:58.725Z,10.40
2023-04-05T16:16:35.377Z,10.40
2023-04-05T16:19:12.971Z,10.30
2023-04-05T16:21:39.961Z,10.30
2023-04-05T16:24:06.872Z,10.30
2023-04-05T16:26:33.851Z,10.30
2023-04-05T16:29:02.858Z,10.20
2023-04-05T16:31:30.876Z,10.20
2023-04-05T16:33:58.405Z,10.20
2023-04-05T16:36:26.187Z,10.20
2023-04-05T16:38:53.153Z,10.20
2023-04-05T16:41:20.049Z,10.10
2023-04-05T16:43:46.929Z,10.00
2023-04-05T16:46:14.036Z,10.00
2023-04-05T16:48:41.083Z,10.00
2023-04-05T16:51:08.050Z,10.00
2023-04-05T16:53:34.994Z,10.00
2023-04-05T16:56:02.028Z,10.00
2023-04-05T16:58:28.906Z,10.00
2023-04-05T17:00:58.937Z,10.00
2023-04-05T17:03:26.422Z,10.00
2023-04-05T17:05:53.506Z,10.00
2023-04-05T17:08:20.457Z,10.00
2023-04-05T17:10:47.743Z,9.90
2023-04-05T17:13:18.257Z,9.90
2023-04-05T17:15:45.287Z,9.80
2023-04-05T17:18:12.516Z,9.80
2023-04-05T17:20:42.490Z,9.80
2023-04-05T17:23:09.446Z,9.70
2023-04-05T17:25:36.460Z,9.70
2023-04-05T17:28:03.907Z,9.70
2023-04-05T17:30:32.022Z,9.70
2023-04-05T17:32:59.007Z,9.60
2023-04-05T17:35:26.079Z,9.60
2023-04-05T17:37:53.205Z,9.60
2023-04-05T17:40:20.156Z,9.50
2023-04-05T17:42:47.054Z,9.50
2023-04-05T17:45:13.985Z,9.50
2023-04-05T17:47:41.155Z,9.40
2023-04-05T17:50:08.505Z,9.40
2023-04-05T17:52:35.394Z,9.40
2023-04-05T17:55:02.931Z,9.30
2023-04-05T17:57:29.878Z,9.30
2023-04-05T17:59:57.944Z,9.20
2023-04-05T18:02:24.886Z,9.20
2023-04-05T18:04:51.801Z,9.10
2023-04-05T18:07:18.718Z,9.00
2023-04-05T18:09:45.962Z,9.00
2023-04-05T18:12:12.881Z,8.90
2023-04-05T18:14:39.833Z,8.80
2023-04-05T18:17:07.557Z,8.80
2023-04-05T18:19:34.719Z,8.70
2023-04-05T18:22:01.790Z,8.60
2023-04-05T18:24:29.637Z,8.50
2023-04-05T18:26:57.623Z,8.40
2023-04-05T18:29:28.549Z,8.40
2023-04-05T18:31:56.620Z,8.30
2023-04-05T18:34:24.067Z,8.30
2023-04-05T18:36:51.419Z,8.20
2023-04-05T18:39:20.328Z,8.10
2023-04-05T18:41:47.968Z,8.00
2023-04-05T18:44:14.954Z,7.90
2023-04-05T18:46:42.319Z,7.90
2023-04-05T18:49:09.527Z,7.90
2023-04-05T18:51:39.013Z,7.90
2023-04-05T18:54:06.069Z,8.10
2023-04-05T18:56:32.988Z,8.30
2023-04-05T18:58:59.928Z,8.30
2023-04-05T19:01:26.915Z,8.20
2023-04-05T19:03:53.903Z,8.10
2023-04-05T19:06:20.901Z,8.00
2023-04-05T19:08:48.400Z,7.90
2023-04-05T19:11:15.698Z,7.80
2023-04-05T19:13:42.632Z,7.70
2023-04-05T19:16:09.749Z,7.60
2023-04-05T19:18:36.860Z,7.50
2023-04-05T19:21:03.856Z,7.50
2023-04-05T19:23:30.840Z,7.50
2023-04-05T19:26:00.009Z,7.50
2023-04-05T19:28:29.947Z,7.50
2023-04-05T19:30:57.022Z,7.50
2023-04-05T19:33:23.933Z,7.40
2023-04-05T19:35:51.403Z,7.40
2023-04-05T19:38:20.707Z,7.30
2023-04-05T19:40:47.626Z,7.30
2023-04-05T19:43:15.065Z,7.20
2023-04-05T19:45:42.508Z,7.20
2023-04-05T19:48:28.352Z,7.10
2023-04-05T19:51:02.136Z,7.10
2023-04-05T19:53:48.692Z,7.10
2023-04-05T19:56:23.729Z,7.00
2023-04-05T19:59:02.147Z,7.00
2023-04-05T20:01:32.121Z,7.00
2023-04-05T20:03:59.454Z,6.90
2023-04-05T20:06:27.419Z,6.80
2023-04-05T20:08:58.648Z,6.80
2023-04-05T20:11:27.657Z,6.70
2023-04-05T20:13:57.055Z,6.70
2023-04-05T20:16:26.136Z,6.60
2023-04-05T20:18:54.414Z,6.60
2023-04-05T20:21:21.271Z,6.50
2023-04-05T20:23:48.312Z,6.50
2023-04-05T20:26:16.455Z,6.40
2023-04-05T20:28:53.530Z,6.40
2023-04-05T20:31:33.087Z,6.40
2023-04-05T20:34:00.167Z,6.40
2023-04-05T20:36:31.540Z,6.30
2023-04-05T20:38:58.564Z,6.30
2023-04-05T20:41:25.812Z,6.30
2023-04-05T20:43:52.835Z,6.30
2023-04-05T20:46:19.814Z,6.30
2023-04-05T20:48:47.016Z,6.30
2023-04-05T20:51:14.407Z,6.20
2023-04-05T20:53:41.497Z,6.10
2023-04-05T20:56:09.531Z,6.10
2023-04-05T20:58:37.809Z,6.00
2023-04-05T21:01:05.368Z,5.90
2023-04-05T21:03:33.816Z,5.90
2023-04-05T21:06:01.468Z,5.90
2023-04-05T21:08:29.192Z,5.90
2023-04-05T21:10:56.188Z,5.90
2023-04-05T21:13:25.570Z,5.80
2023-04-05T21:15:53.622Z,5.80
2023-04-05T21:18:20.759Z,5.80
2023-04-05T21:20:53.656Z,5.80
2023-04-05T21:23:21.643Z,5.80
2023-04-05T21:25:48.765Z,5.70
2023-04-05T21:28:16.638Z,5.70
2023-04-05T21:30:44.060Z,5.70
2023-04-05T21:33:11.315Z,5.70
2023-04-05T21:35:39.010Z,5.80
2023-04-05T21:38:06.285Z,5.80
2023-04-05T21:40:33.635Z,5.80
2023-04-05T21:43:00.634Z,5.80
2023-04-05T21:45:27.896Z,5.80
2023-04-05T21:47:55.419Z,5.70
2023-04-05T21:50:22.911Z,5.70
2023-04-05T21:52:49.945Z,5.60
2023-04-05T21:55:16.827Z,5.60
2023-04-05T21:57:43.802Z,5.60
2023-04-05T22:00:12.347Z,5.60
2023-04-05T22:02:39.867Z,5.50
2023-04-05T22:05:07.568Z,5.50
2023-04-05T22:07:34.664Z,5.50
2023-04-05T22:10:02.036Z,5.40
2023-04-05T22:12:29.170Z,5.40
2023-04-05T22:14:56.626Z,5.40
2023-04-05T22:17:23.688Z,5.40
2023-04-05T22:19:50.707Z,5.30
2023-04-05T22:22:19.657Z,5.30
2023-04-05T22:24:47.623Z,5.30
2023-04-05T22:27:14.536Z,5.20
2023-04-05T22:29:41.733Z,5.20
2023-04-05T22:32:08.778Z,5.20
2023-04-05T22:34:36.392Z,5.20
2023-04-05T22:37:03.379Z,5.20
2023-04-05T22:39:30.354Z,5.30
2023-04-05T22:41:57.714Z,5.30
2023-04-05T22:44:25.294Z,5.30
2023-04-05T22:46:52.646Z,5.30
2023-04-05T22:49:19.630Z,5.30
2023-04-05T22:51:46.628Z,5.30
2023-04-05T22:54:13.582Z,5.30
2023-04-05T22:56:40.675Z,5.40
2023-04-05T22:59:07.895Z,5.40
2023-04-05T23:01:35.086Z,5.40
2023-04-05T23:04:02.216Z,5.40
2023-04-05T23:06:31.331Z,5.30
2023-04-05T23:08:58.257Z,5.20
2023-04-05T23:11:25.173Z,5.20
2023-04-05T23:13:52.152Z,5.10
2023-04-05T23:16:19.208Z,5.10
2023-04-05T23:18:46.572Z,5.10
2023-04-05T23:21:13.523Z,5.00
2023-04-05T23:23:40.447Z,4.90
2023-04-05T23:26:07.370Z,4.90
2023-04-05T23:28:34.400Z,4.90
2023-04-05T23:31:01.291Z,4.90
2023-04-05T23:33:28.251Z,4.90
2023-04-05T23:35:55.227Z,4.90
2023-04-05T23:38:22.339Z,4.90
2023-04-05T23:40:49.253Z,4.90
2023-04-05T23:43:16.238Z,4.80
2023-04-05T23:45:43.244Z,4.80
2023-04-05T23:48:10.159Z,4.70
2023-04-05T23:50:37.120Z,4.70
2023-04-05T23:53:04.196Z,4.60
2023-04-05T23:55:32.644Z,4.60
2023-04-05T23:58:00.318Z,4.60
